createdAt,value
2017-04-23T00:00:30.293Z,0
2017-04-23T00:01:31.528Z,0
2017-04-23T00:02:32.796Z,0
2017-04-23T00:03:34.029Z,0
2017-04-23T00:04:35.267Z,0
2017-04-23T00:05:36.664Z,0
2017-04-23T00:06:38.013Z,0
2017-04-23T00:07:39.365Z,0
2017-04-23T00:08:40.701Z,0
2017-04-23T00:09:41.930Z,0
2017-04-23T00:10:43.151Z,0
2017-04-23T00:11:44.388Z,0
2017-04-23T00:12:45.840Z,0
2017-04-23T00:13:47.087Z,0
2017-04-23T00:14:48.326Z,0
2017-04-23T00:15:49.563Z,0
2017-04-23T00:16:50.995Z,0
2017-04-23T00:17:52.258Z,0
2017-04-23T00:18:53.515Z,0
2017-04-23T00:19:54.772Z,0
2017-04-23T00:20:56.058Z,0
2017-04-23T00:21:57.262Z,0
2017-04-23T00:22:58.521Z,0
2017-04-23T00:23:59.804Z,0
2017-04-23T00:25:01.042Z,0
2017-04-23T00:26:02.268Z,0
2017-04-23T00:27:03.501Z,0
2017-04-23T00:28:04.734Z,0
2017-04-23T00:29:06.015Z,0
2017-04-23T00:30:07.245Z,0
2017-04-23T00:31:08.585Z,0
2017-04-23T00:32:09.806Z,0
2017-04-23T00:33:11.128Z,0
2017-04-23T00:34:12.469Z,0
2017-04-23T00:35:13.718Z,0
2017-04-23T00:36:15.107Z,0
2017-04-23T00:37:16.358Z,0
2017-04-23T00:38:17.571Z,0
2017-04-23T00:39:18.826Z,0
2017-04-23T00:40:20.057Z,0
2017-04-23T00:41:21.310Z,0
2017-04-23T00:42:22.557Z,0
2017-04-23T00:43:23.836Z,0
2017-04-23T00:44:25.079Z,0
2017-04-23T00:45:26.324Z,0
2017-04-23T00:46:27.557Z,0
2017-04-23T00:47:28.794Z,0
2017-04-23T00:48:30.053Z,0
2017-04-23T00:49:31.292Z,0
2017-04-23T00:50:32.577Z,0
2017-04-23T00:51:33.772Z,0
2017-04-23T00:52:35.019Z,0
2017-04-23T00:53:36.340Z,0
2017-04-23T00:54:37.568Z,0
2017-04-23T00:55:38.835Z,0
2017-04-23T00:56:40.162Z,0
2017-04-23T00:57:41.379Z,0
2017-04-23T00:58:42.623Z,0
2017-04-23T00:59:43.861Z,0
2017-04-23T01:00:45.113Z,0
2017-04-23T01:01:46.394Z,0
2017-04-23T01:02:47.926Z,0
2017-04-23T01:03:49.161Z,0
2017-04-23T01:04:50.414Z,0
2017-04-23T01:05:51.685Z,0
2017-04-23T01:06:52.880Z,0
2017-04-23T01:07:54.194Z,0
2017-04-23T01:08:55.448Z,0
2017-04-23T01:09:56.718Z,0
2017-04-23T01:10:57.955Z,0
2017-04-23T01:11:59.185Z,0
2017-04-23T01:13:00.437Z,0
2017-04-23T01:14:01.665Z,0
2017-04-23T01:15:02.900Z,0
2017-04-23T01:16:04.243Z,0
2017-04-23T01:17:05.492Z,0
2017-04-23T01:18:06.709Z,0
2017-04-23T01:19:08.013Z,0
2017-04-23T01:20:09.239Z,0
2017-04-23T01:21:10.468Z,0
2017-04-23T01:22:11.717Z,0
2017-04-23T01:23:12.970Z,0
2017-04-23T01:24:14.208Z,0
2017-04-23T01:25:15.424Z,0
2017-04-23T01:26:16.655Z,0
2017-04-23T01:27:17.894Z,0
2017-04-23T01:28:19.153Z,0
2017-04-23T01:29:20.639Z,0
2017-04-23T01:30:21.911Z,0
2017-04-23T01:31:23.116Z,0
2017-04-23T01:32:24.371Z,0
2017-04-23T01:33:25.607Z,0
2017-04-23T01:34:26.847Z,0
2017-04-23T01:35:28.086Z,0
2017-04-23T01:36:29.315Z,0
2017-04-23T01:37:30.553Z,0
2017-04-23T01:38:31.796Z,0
2017-04-23T01:39:33.147Z,0
2017-04-23T01:40:34.391Z,0
2017-04-23T01:41:35.623Z,0
2017-04-23T01:42:36.951Z,0
2017-04-23T01:43:38.207Z,0
2017-04-23T01:44:39.470Z,0
2017-04-23T01:45:40.717Z,0
2017-04-23T01:46:42.120Z,0
2017-04-23T01:47:43.335Z,0
2017-04-23T01:48:44.572Z,0
2017-04-23T01:49:45.803Z,0
2017-04-23T01:50:47.052Z,0
2017-04-23T01:51:48.299Z,0
2017-04-23T01:52:49.543Z,0
2017-04-23T01:53:50.789Z,0
2017-04-23T01:54:52.033Z,0
2017-04-23T01:55:53.269Z,0
2017-04-23T01:56:54.511Z,0
2017-04-23T01:57:55.884Z,0
2017-04-23T01:58:57.190Z,0
2017-04-23T01:59:58.409Z,0
2017-04-23T02:00:59.640Z,0
2017-04-23T02:02:00.879Z,0
2017-04-23T02:03:02.116Z,0
2017-04-23T02:04:03.349Z,0
2017-04-23T02:05:04.615Z,0
2017-04-23T02:06:05.959Z,0
2017-04-23T02:07:07.194Z,0
2017-04-23T02:08:08.468Z,0
2017-04-23T02:09:09.725Z,0
2017-04-23T02:10:11.022Z,0
2017-04-23T02:11:12.267Z,0
2017-04-23T02:12:13.503Z,0
2017-04-23T02:13:14.748Z,0
2017-04-23T02:14:15.982Z,0
2017-04-23T02:15:17.221Z,0
2017-04-23T02:16:18.474Z,0
2017-04-23T02:17:19.734Z,0
2017-04-23T02:18:20.960Z,0
2017-04-23T02:19:22.193Z,0
2017-04-23T02:20:23.448Z,0
2017-04-23T02:21:24.713Z,0
2017-04-23T02:22:25.951Z,0
2017-04-23T02:23:27.200Z,0
2017-04-23T02:24:28.428Z,0
2017-04-23T02:25:29.659Z,0
2017-04-23T02:26:30.898Z,0
2017-04-23T02:27:32.188Z,0
2017-04-23T02:28:33.404Z,0
2017-04-23T02:29:34.645Z,0
2017-04-23T02:30:35.942Z,0
2017-04-23T02:31:37.203Z,0
2017-04-23T02:32:38.436Z,0
2017-04-23T02:33:39.671Z,0
2017-04-23T02:34:40.900Z,0
2017-04-23T02:35:42.317Z,0
2017-04-23T02:36:43.467Z,0
2017-04-23T02:37:44.747Z,0
2017-04-23T02:38:45.984Z,0
2017-04-23T02:39:47.236Z,0
2017-04-23T02:40:48.469Z,0
2017-04-23T02:41:49.716Z,0
2017-04-23T02:42:50.913Z,0
2017-04-23T02:43:52.170Z,0
2017-04-23T02:44:53.423Z,0
2017-04-23T02:45:54.681Z,0
2017-04-23T02:46:55.916Z,0
2017-04-23T02:47:57.154Z,0
2017-04-23T02:48:58.425Z,0
2017-04-23T02:49:59.657Z,0
2017-04-23T02:51:00.889Z,0
2017-04-23T02:52:02.126Z,0
2017-04-23T02:53:03.374Z,0
2017-04-23T02:54:04.713Z,0
2017-04-23T02:55:05.963Z,0
2017-04-23T02:56:07.302Z,0
2017-04-23T02:57:08.632Z,0
2017-04-23T02:58:09.882Z,0
2017-04-23T02:59:11.133Z,0
2017-04-23T03:00:12.374Z,0
2017-04-23T03:01:13.611Z,0
2017-04-23T03:02:14.854Z,0
2017-04-23T03:03:16.137Z,0
2017-04-23T03:04:17.392Z,0
2017-04-23T03:05:18.657Z,0
2017-04-23T03:06:19.886Z,0
2017-04-23T03:07:21.162Z,0
2017-04-23T03:08:22.386Z,0
2017-04-23T03:09:23.633Z,0
2017-04-23T03:10:24.856Z,0
2017-04-23T03:11:26.124Z,0
2017-04-23T03:12:27.355Z,0
2017-04-23T03:13:28.679Z,0
2017-04-23T03:14:29.948Z,0
2017-04-23T03:15:31.170Z,0
2017-04-23T03:16:32.411Z,0
2017-04-23T03:17:33.675Z,0
2017-04-23T03:18:34.955Z,0
2017-04-23T03:19:36.176Z,0
2017-04-23T03:20:37.409Z,0
2017-04-23T03:21:38.752Z,0
2017-04-23T03:22:39.989Z,0
2017-04-23T03:23:41.331Z,0
2017-04-23T03:24:42.815Z,0
2017-04-23T03:25:44.060Z,0
2017-04-23T03:26:45.297Z,0
2017-04-23T03:27:46.541Z,0
2017-04-23T03:28:47.778Z,0
2017-04-23T03:29:49.203Z,0
2017-04-23T03:30:50.439Z,0
2017-04-23T03:31:51.682Z,0
2017-04-23T03:32:53.007Z,0
2017-04-23T03:33:54.248Z,0
2017-04-23T03:34:55.513Z,0
2017-04-23T03:35:56.754Z,0
2017-04-23T03:36:57.987Z,0
2017-04-23T03:37:59.233Z,0
2017-04-23T03:39:00.471Z,0
2017-04-23T03:40:01.729Z,0
2017-04-23T03:41:02.971Z,0
2017-04-23T03:42:04.226Z,0
2017-04-23T03:43:05.456Z,0
2017-04-23T03:44:06.772Z,0
2017-04-23T03:45:08.013Z,0
2017-04-23T03:46:09.288Z,0
2017-04-23T03:47:10.579Z,0
2017-04-23T03:48:11.762Z,0
2017-04-23T03:49:13.107Z,0
2017-04-23T03:50:14.341Z,0
2017-04-23T03:51:15.653Z,0
2017-04-23T03:52:16.901Z,0
2017-04-23T03:53:18.154Z,0
2017-04-23T03:54:19.382Z,0
2017-04-23T03:55:20.656Z,0
2017-04-23T03:56:21.860Z,0
2017-04-23T03:57:23.106Z,0
2017-04-23T03:58:24.337Z,0
2017-04-23T03:59:25.574Z,0
2017-04-23T04:00:26.846Z,0
2017-04-23T04:01:28.085Z,0
2017-04-23T04:02:29.328Z,0
2017-04-23T04:03:30.575Z,0
2017-04-23T04:04:31.855Z,0
2017-04-23T04:05:33.145Z,5
2017-04-23T04:06:34.363Z,5
2017-04-23T04:07:35.604Z,5
2017-04-23T04:08:36.840Z,5
2017-04-23T04:09:38.089Z,5
2017-04-23T04:10:39.347Z,5
2017-04-23T04:11:40.558Z,5
2017-04-23T04:12:41.890Z,10
2017-04-23T04:13:43.207Z,10
2017-04-23T04:14:44.543Z,10
2017-04-23T04:15:45.771Z,10
2017-04-23T04:16:47.003Z,10
2017-04-23T04:17:48.234Z,15
2017-04-23T04:18:49.471Z,15
2017-04-23T04:19:50.759Z,15
2017-04-23T04:20:51.970Z,15
2017-04-23T04:21:53.212Z,15
2017-04-23T04:22:54.471Z,20
2017-04-23T04:23:55.731Z,20
2017-04-23T04:24:56.967Z,25
2017-04-23T04:25:58.210Z,25
2017-04-23T04:26:59.474Z,30
2017-04-23T04:28:00.701Z,30
2017-04-23T04:29:01.935Z,35
2017-04-23T04:30:03.194Z,35
2017-04-23T04:31:04.425Z,40
2017-04-23T04:32:05.749Z,40
2017-04-23T04:33:06.985Z,40
2017-04-23T04:34:08.314Z,40
2017-04-23T04:35:09.550Z,40
2017-04-23T04:36:10.783Z,45
2017-04-23T04:37:12.034Z,45
2017-04-23T04:38:13.350Z,45
2017-04-23T04:39:14.637Z,45
2017-04-23T04:40:15.870Z,45
2017-04-23T04:41:17.120Z,45
2017-04-23T04:42:18.443Z,45
2017-04-23T04:43:19.617Z,45
2017-04-23T04:44:20.879Z,45
2017-04-23T04:45:22.142Z,50
2017-04-23T04:46:23.465Z,50
2017-04-23T04:47:24.708Z,50
2017-04-23T04:48:25.941Z,55
2017-04-23T04:49:27.178Z,55
2017-04-23T04:50:28.441Z,60
2017-04-23T04:51:29.702Z,60
2017-04-23T04:52:30.975Z,65
2017-04-23T04:53:32.226Z,65
2017-04-23T04:54:33.477Z,70
2017-04-23T04:55:34.700Z,75
2017-04-23T04:56:35.963Z,80
2017-04-23T04:57:37.195Z,85
2017-04-23T04:58:38.511Z,95
2017-04-23T04:59:39.762Z,95
2017-04-23T05:00:41.063Z,100
2017-04-23T05:01:42.404Z,100
2017-04-23T05:02:43.544Z,105
2017-04-23T05:03:44.842Z,115
2017-04-23T05:04:46.139Z,125
2017-04-23T05:05:47.339Z,135
2017-04-23T05:06:48.598Z,140
2017-04-23T05:07:49.813Z,150
2017-04-23T05:08:51.074Z,170
2017-04-23T05:09:52.314Z,165
2017-04-23T05:10:53.557Z,170
2017-04-23T05:11:55.047Z,205
2017-04-23T05:12:56.281Z,210
2017-04-23T05:13:57.511Z,240
2017-04-23T05:14:58.867Z,285
2017-04-23T05:16:00.080Z,260
2017-04-23T05:17:01.360Z,310
2017-04-23T05:18:02.665Z,390
2017-04-23T05:19:03.901Z,380
2017-04-23T05:20:05.134Z,240
2017-04-23T05:21:06.367Z,240
2017-04-23T05:22:07.600Z,225
2017-04-23T05:23:08.841Z,220
2017-04-23T05:24:10.086Z,200
2017-04-23T05:25:11.322Z,200
2017-04-23T05:26:12.601Z,185
2017-04-23T05:27:13.828Z,170
2017-04-23T05:28:15.068Z,195
2017-04-23T05:29:16.475Z,205
2017-04-23T05:30:17.711Z,210
2017-04-23T05:31:18.961Z,215
2017-04-23T05:32:20.201Z,225
2017-04-23T05:33:21.434Z,235
2017-04-23T05:34:22.774Z,245
2017-04-23T05:35:23.999Z,260
2017-04-23T05:36:25.220Z,290
2017-04-23T05:37:26.460Z,305
2017-04-23T05:38:27.691Z,310
2017-04-23T05:39:28.927Z,295
2017-04-23T05:40:30.254Z,290
2017-04-23T05:41:31.404Z,310
2017-04-23T05:42:32.789Z,300
2017-04-23T05:43:34.028Z,270
2017-04-23T05:44:35.267Z,295
2017-04-23T05:45:36.529Z,310
2017-04-23T05:46:37.755Z,310
2017-04-23T05:47:39.001Z,300
2017-04-23T05:48:40.238Z,300
2017-04-23T05:49:41.525Z,300
2017-04-23T05:50:42.814Z,275
2017-04-23T05:51:44.049Z,260
2017-04-23T05:52:45.308Z,245
2017-04-23T05:53:46.531Z,235
2017-04-23T05:54:47.790Z,225
2017-04-23T05:55:49.057Z,235
2017-04-23T05:56:50.388Z,255
2017-04-23T05:57:51.617Z,280
2017-04-23T05:58:52.861Z,320
2017-04-23T05:59:54.203Z,350
2017-04-23T06:00:55.474Z,375
2017-04-23T06:01:56.715Z,425
2017-04-23T06:02:57.945Z,495
2017-04-23T06:03:59.177Z,485
2017-04-23T06:05:00.436Z,625
2017-04-23T06:06:01.653Z,785
2017-04-23T06:07:02.969Z,470
2017-04-23T06:08:04.217Z,505
2017-04-23T06:09:05.461Z,520
2017-04-23T06:10:06.699Z,530
2017-04-23T06:11:07.932Z,520
2017-04-23T06:12:09.177Z,490
2017-04-23T06:13:10.435Z,495
2017-04-23T06:14:11.675Z,615
2017-04-23T06:15:12.918Z,690
2017-04-23T06:16:14.163Z,915
2017-04-23T06:17:15.396Z,595
2017-04-23T06:18:16.687Z,720
2017-04-23T06:19:17.925Z,575
2017-04-23T06:20:19.204Z,445
2017-04-23T06:21:20.511Z,480
2017-04-23T06:22:21.752Z,540
2017-04-23T06:23:22.997Z,650
2017-04-23T06:24:24.254Z,420
2017-04-23T06:25:25.478Z,425
2017-04-23T06:26:26.738Z,495
2017-04-23T06:27:27.995Z,655
2017-04-23T06:28:29.284Z,485
2017-04-23T06:29:30.627Z,445
2017-04-23T06:30:31.882Z,400
2017-04-23T06:31:33.227Z,385
2017-04-23T06:32:34.619Z,455
2017-04-23T06:33:35.851Z,510
2017-04-23T06:34:37.094Z,1270
2017-04-23T06:35:38.331Z,1300
2017-04-23T06:36:39.574Z,1305
2017-04-23T06:37:40.811Z,1325
2017-04-23T06:38:42.074Z,1345
2017-04-23T06:39:43.299Z,1360
2017-04-23T06:40:44.584Z,1405
2017-04-23T06:41:45.811Z,1190
2017-04-23T06:42:47.054Z,1545
2017-04-23T06:43:48.301Z,1675
2017-04-23T06:44:49.684Z,1775
2017-04-23T06:45:51.015Z,1645
2017-04-23T06:46:52.254Z,1450
2017-04-23T06:47:53.506Z,780
2017-04-23T06:48:54.749Z,580
2017-04-23T06:49:56.016Z,500
2017-04-23T06:50:57.248Z,460
2017-04-23T06:51:58.546Z,445
2017-04-23T06:52:59.786Z,435
2017-04-23T06:54:01.034Z,425
2017-04-23T06:55:02.276Z,425
2017-04-23T06:56:03.537Z,450
2017-04-23T06:57:04.775Z,475
2017-04-23T06:58:06.040Z,490
2017-04-23T06:59:07.271Z,510
2017-04-23T07:00:08.596Z,540
2017-04-23T07:01:09.813Z,535
2017-04-23T07:02:11.052Z,550
2017-04-23T07:03:12.383Z,590
2017-04-23T07:04:13.617Z,635
2017-04-23T07:05:14.887Z,645
2017-04-23T07:06:16.134Z,645
2017-04-23T07:07:17.381Z,700
2017-04-23T07:08:18.721Z,655
2017-04-23T07:09:19.867Z,670
2017-04-23T07:10:21.232Z,745
2017-04-23T07:11:22.601Z,930
2017-04-23T07:12:23.838Z,940
2017-04-23T07:13:25.095Z,1210
2017-04-23T07:14:26.356Z,1280
2017-04-23T07:15:27.589Z,950
2017-04-23T07:16:28.876Z,1200
2017-04-23T07:17:30.215Z,825
2017-04-23T07:18:31.438Z,665
2017-04-23T07:19:32.719Z,600
2017-04-23T07:20:33.926Z,580
2017-04-23T07:21:35.187Z,570
2017-04-23T07:22:36.504Z,575
2017-04-23T07:23:37.747Z,590
2017-04-23T07:24:38.987Z,640
2017-04-23T07:25:40.253Z,685
2017-04-23T07:26:41.497Z,930
2017-04-23T07:27:42.766Z,1520
2017-04-23T07:28:44.052Z,785
2017-04-23T07:29:45.357Z,1935
2017-04-23T07:30:46.613Z,2465
2017-04-23T07:31:47.848Z,1730
2017-04-23T07:32:49.111Z,2125
2017-04-23T07:33:50.436Z,965
2017-04-23T07:34:51.591Z,1880
2017-04-23T07:35:52.878Z,2065
2017-04-23T07:36:54.111Z,2085
2017-04-23T07:37:55.354Z,2035
2017-04-23T07:38:56.607Z,2015
2017-04-23T07:39:57.851Z,1955
2017-04-23T07:40:59.111Z,1855
2017-04-23T07:42:00.528Z,2005
2017-04-23T07:43:01.745Z,2055
2017-04-23T07:44:02.998Z,1910
2017-04-23T07:45:04.275Z,1740
2017-04-23T07:46:05.506Z,1690
2017-04-23T07:47:06.783Z,1435
2017-04-23T07:48:08.036Z,1305
2017-04-23T07:49:09.283Z,1350
2017-04-23T07:50:10.556Z,1135
2017-04-23T07:51:11.829Z,1055
2017-04-23T07:52:13.059Z,1060
2017-04-23T07:53:14.400Z,1055
2017-04-23T07:54:15.652Z,1025
2017-04-23T07:55:16.924Z,1220
2017-04-23T07:56:18.177Z,1095
2017-04-23T07:57:19.435Z,895
2017-04-23T07:58:20.698Z,920
2017-04-23T07:59:22.159Z,1860
2017-04-23T08:00:23.486Z,2435
2017-04-23T08:01:24.892Z,1840
2017-04-23T08:02:26.134Z,1840
2017-04-23T08:03:27.385Z,2340
2017-04-23T08:04:28.679Z,1710
2017-04-23T08:05:29.919Z,2290
2017-04-23T08:06:31.166Z,2010
2017-04-23T08:07:32.427Z,1145
2017-04-23T08:08:33.706Z,1095
2017-04-23T08:09:35.052Z,1350
2017-04-23T08:10:36.306Z,1800
2017-04-23T08:11:37.558Z,1365
2017-04-23T08:12:38.834Z,1105
2017-04-23T08:13:40.088Z,1010
2017-04-23T08:14:41.335Z,995
2017-04-23T08:15:42.706Z,1060
2017-04-23T08:16:43.983Z,970
2017-04-23T08:17:45.264Z,855
2017-04-23T08:18:46.619Z,935
2017-04-23T08:19:47.870Z,895
2017-04-23T08:20:49.123Z,810
2017-04-23T08:21:50.389Z,795
2017-04-23T08:22:51.628Z,770
2017-04-23T08:23:52.953Z,815
2017-04-23T08:24:54.185Z,875
2017-04-23T08:25:55.462Z,975
2017-04-23T08:26:56.725Z,1575
2017-04-23T08:27:57.962Z,1015
2017-04-23T08:28:59.215Z,910
2017-04-23T08:30:00.464Z,1205
2017-04-23T08:31:01.714Z,950
2017-04-23T08:32:02.958Z,840
2017-04-23T08:33:04.202Z,905
2017-04-23T08:34:05.437Z,1040
2017-04-23T08:35:06.699Z,1225
2017-04-23T08:36:08.021Z,1640
2017-04-23T08:37:09.255Z,1640
2017-04-23T08:38:10.514Z,1670
2017-04-23T08:39:11.752Z,1320
2017-04-23T08:40:12.990Z,1435
2017-04-23T08:41:14.263Z,1735
2017-04-23T08:42:15.504Z,1075
2017-04-23T08:43:16.774Z,1140
2017-04-23T08:44:18.042Z,1280
2017-04-23T08:45:19.470Z,1190
2017-04-23T08:46:20.831Z,780
2017-04-23T08:47:22.030Z,595
2017-04-23T08:48:23.308Z,595
2017-04-23T08:49:24.578Z,765
2017-04-23T08:50:25.855Z,950
2017-04-23T08:51:27.228Z,1070
2017-04-23T08:52:28.495Z,885
2017-04-23T08:53:29.731Z,890
2017-04-23T08:54:30.997Z,1055
2017-04-23T08:55:32.264Z,1425
2017-04-23T08:56:33.494Z,960
2017-04-23T08:57:34.782Z,2470
2017-04-23T08:58:36.029Z,2530
2017-04-23T08:59:37.287Z,990
2017-04-23T09:00:38.538Z,1120
2017-04-23T09:01:39.810Z,1970
2017-04-23T09:02:41.222Z,2480
2017-04-23T09:03:42.457Z,3555
2017-04-23T09:04:43.737Z,1725
2017-04-23T09:05:45.012Z,2335
2017-04-23T09:06:46.257Z,1305
2017-04-23T09:07:47.512Z,870
2017-04-23T09:08:48.770Z,980
2017-04-23T09:09:50.031Z,3245
2017-04-23T09:10:51.281Z,1310
2017-04-23T09:11:52.522Z,2655
2017-04-23T09:12:53.776Z,955
2017-04-23T09:13:55.037Z,925
2017-04-23T09:14:56.297Z,715
2017-04-23T09:15:57.538Z,605
2017-04-23T09:16:58.924Z,665
2017-04-23T09:18:00.151Z,515
2017-04-23T09:19:01.403Z,615
2017-04-23T09:20:02.682Z,840
2017-04-23T09:21:03.952Z,1120
2017-04-23T09:22:05.250Z,1170
2017-04-23T09:23:06.501Z,890
2017-04-23T09:24:07.764Z,805
2017-04-23T09:25:09.013Z,630
2017-04-23T09:26:10.259Z,645
2017-04-23T09:27:11.563Z,655
2017-04-23T09:28:12.904Z,570
2017-04-23T09:29:14.157Z,480
2017-04-23T09:30:15.385Z,430
2017-04-23T09:31:16.634Z,420
2017-04-23T09:32:17.949Z,395
2017-04-23T09:33:19.201Z,325
2017-04-23T09:34:20.440Z,290
2017-04-23T09:35:21.700Z,300
2017-04-23T09:36:22.940Z,350
2017-04-23T09:37:24.198Z,390
2017-04-23T09:38:25.452Z,410
2017-04-23T09:39:26.690Z,365
2017-04-23T09:40:27.928Z,345
2017-04-23T09:41:29.180Z,345
2017-04-23T09:42:30.454Z,340
2017-04-23T09:43:31.689Z,400
2017-04-23T09:44:32.931Z,395
2017-04-23T09:45:34.368Z,435
2017-04-23T09:46:35.635Z,485
2017-04-23T09:47:36.908Z,460
2017-04-23T09:48:38.149Z,420
2017-04-23T09:49:39.394Z,380
2017-04-23T09:50:40.647Z,465
2017-04-23T09:51:41.887Z,655
2017-04-23T09:52:43.214Z,710
2017-04-23T09:53:44.444Z,1475
2017-04-23T09:54:45.713Z,550
2017-04-23T09:55:46.987Z,490
2017-04-23T09:56:48.307Z,520
2017-04-23T09:57:49.544Z,1930
2017-04-23T09:58:50.831Z,860
2017-04-23T09:59:52.080Z,1010
2017-04-23T10:00:53.311Z,825
2017-04-23T10:01:54.659Z,685
2017-04-23T10:02:55.912Z,645
2017-04-23T10:03:57.154Z,665
2017-04-23T10:04:58.505Z,670
2017-04-23T10:05:59.754Z,695
2017-04-23T10:07:01.051Z,750
2017-04-23T10:08:02.401Z,735
2017-04-23T10:09:03.705Z,750
2017-04-23T10:10:05.044Z,790
2017-04-23T10:11:06.296Z,735
2017-04-23T10:12:07.540Z,540
2017-04-23T10:13:08.785Z,420
2017-04-23T10:14:10.162Z,445
2017-04-23T10:15:11.324Z,435
2017-04-23T10:16:12.678Z,415
2017-04-23T10:17:13.934Z,355
2017-04-23T10:18:15.185Z,295
2017-04-23T10:19:16.451Z,265
2017-04-23T10:20:17.686Z,245
2017-04-23T10:21:18.945Z,230
2017-04-23T10:22:20.197Z,220
2017-04-23T10:23:21.533Z,215
2017-04-23T10:24:22.975Z,205
2017-04-23T10:25:24.232Z,230
2017-04-23T10:26:25.573Z,375
2017-04-23T10:27:26.822Z,630
2017-04-23T10:28:28.060Z,610
2017-04-23T10:29:29.301Z,560
2017-04-23T10:30:30.712Z,525
2017-04-23T10:31:31.946Z,520
2017-04-23T10:32:33.231Z,545
2017-04-23T10:33:34.584Z,575
2017-04-23T10:34:35.813Z,685
2017-04-23T10:35:37.084Z,705
2017-04-23T10:36:38.461Z,830
2017-04-23T10:37:39.616Z,1005
2017-04-23T10:38:40.861Z,1125
2017-04-23T10:39:42.125Z,1030
2017-04-23T10:40:43.429Z,1095
2017-04-23T10:41:44.757Z,1095
2017-04-23T10:42:45.916Z,1115
2017-04-23T10:43:47.173Z,1055
2017-04-23T10:44:48.405Z,980
2017-04-23T10:45:49.667Z,900
2017-04-23T10:46:50.918Z,890
2017-04-23T10:47:52.168Z,865
2017-04-23T10:48:53.406Z,895
2017-04-23T10:49:54.683Z,920
2017-04-23T10:50:56.013Z,885
2017-04-23T10:51:57.316Z,855
2017-04-23T10:52:58.556Z,860
2017-04-23T10:53:59.796Z,860
2017-04-23T10:55:01.074Z,845
2017-04-23T10:56:02.438Z,870
2017-04-23T10:57:03.689Z,900
2017-04-23T10:58:04.947Z,865
2017-04-23T10:59:06.176Z,775
2017-04-23T11:00:07.431Z,610
2017-04-23T11:01:08.678Z,535
2017-04-23T11:02:09.930Z,500
2017-04-23T11:03:11.177Z,445
2017-04-23T11:04:12.428Z,415
2017-04-23T11:05:13.668Z,405
2017-04-23T11:06:14.924Z,390
2017-04-23T11:07:16.174Z,415
2017-04-23T11:08:17.411Z,415
2017-04-23T11:09:19.025Z,440
2017-04-23T11:10:20.319Z,450
2017-04-23T11:11:21.560Z,465
2017-04-23T11:12:22.887Z,435
2017-04-23T11:13:24.058Z,410
2017-04-23T11:14:25.413Z,400
2017-04-23T11:15:26.660Z,415
2017-04-23T11:16:27.915Z,425
2017-04-23T11:17:29.214Z,415
2017-04-23T11:18:30.459Z,410
2017-04-23T11:19:31.710Z,425
2017-04-23T11:20:33.024Z,490
2017-04-23T11:21:34.359Z,680
2017-04-23T11:22:35.799Z,610
2017-04-23T11:23:37.047Z,600
2017-04-23T11:24:38.285Z,545
2017-04-23T11:25:39.540Z,550
2017-04-23T11:26:40.787Z,550
2017-04-23T11:27:42.070Z,535
2017-04-23T11:28:43.362Z,530
2017-04-23T11:29:44.632Z,580
2017-04-23T11:30:45.884Z,705
2017-04-23T11:31:47.114Z,695
2017-04-23T11:32:48.678Z,725
2017-04-23T11:33:49.859Z,740
2017-04-23T11:34:51.078Z,735
2017-04-23T11:35:52.326Z,725
2017-04-23T11:36:53.598Z,705
2017-04-23T11:37:54.831Z,635
2017-04-23T11:38:56.192Z,525
2017-04-23T11:39:57.449Z,435
2017-04-23T11:40:58.742Z,385
2017-04-23T11:41:59.983Z,345
2017-04-23T11:43:01.231Z,335
2017-04-23T11:44:02.499Z,340
2017-04-23T11:45:03.739Z,360
2017-04-23T11:46:05.006Z,400
2017-04-23T11:47:06.276Z,475
2017-04-23T11:48:07.497Z,555
2017-04-23T11:49:08.802Z,630
2017-04-23T11:50:10.061Z,710
2017-04-23T11:51:11.306Z,750
2017-04-23T11:52:12.535Z,770
2017-04-23T11:53:13.804Z,710
2017-04-23T11:54:15.077Z,660
2017-04-23T11:55:16.550Z,600
2017-04-23T11:56:17.791Z,530
2017-04-23T11:57:19.031Z,460
2017-04-23T11:58:20.301Z,385
2017-04-23T11:59:21.674Z,300
2017-04-23T12:00:22.992Z,240
2017-04-23T12:01:24.259Z,200
2017-04-23T12:02:25.474Z,175
2017-04-23T12:03:26.804Z,160
2017-04-23T12:04:28.043Z,150
2017-04-23T12:05:29.287Z,145
2017-04-23T12:06:30.551Z,145
2017-04-23T12:07:31.802Z,145
2017-04-23T12:08:33.045Z,145
2017-04-23T12:09:34.398Z,145
2017-04-23T12:10:35.651Z,160
2017-04-23T12:11:36.908Z,165
2017-04-23T12:12:38.146Z,175
2017-04-23T12:13:39.386Z,200
2017-04-23T12:14:40.775Z,230
2017-04-23T12:15:42.107Z,270
2017-04-23T12:16:43.435Z,335
2017-04-23T12:17:44.681Z,415
2017-04-23T12:18:45.924Z,470
2017-04-23T12:19:47.189Z,510
2017-04-23T12:20:48.474Z,530
2017-04-23T12:21:49.758Z,535
2017-04-23T12:22:51.012Z,550
2017-04-23T12:23:52.249Z,570
2017-04-23T12:24:53.486Z,575
2017-04-23T12:25:54.727Z,595
2017-04-23T12:26:56.014Z,630
2017-04-23T12:27:57.359Z,635
2017-04-23T12:28:58.654Z,600
2017-04-23T12:29:59.903Z,595
2017-04-23T12:31:01.230Z,605
2017-04-23T12:32:02.504Z,600
2017-04-23T12:33:03.750Z,590
2017-04-23T12:34:05.069Z,555
2017-04-23T12:35:06.324Z,535
2017-04-23T12:36:07.563Z,505
2017-04-23T12:37:08.798Z,465
2017-04-23T12:38:10.076Z,435
2017-04-23T12:39:11.306Z,385
2017-04-23T12:40:12.555Z,360
2017-04-23T12:41:13.837Z,360
2017-04-23T12:42:15.094Z,360
2017-04-23T12:43:16.339Z,370
2017-04-23T12:44:17.577Z,395
2017-04-23T12:45:18.852Z,375
2017-04-23T12:46:20.129Z,365
2017-04-23T12:47:21.415Z,425
2017-04-23T12:48:22.732Z,455
2017-04-23T12:49:23.987Z,470
2017-04-23T12:50:25.235Z,490
2017-04-23T12:51:26.499Z,525
2017-04-23T12:52:27.842Z,550
2017-04-23T12:53:29.090Z,550
2017-04-23T12:54:30.360Z,545
2017-04-23T12:55:31.592Z,535
2017-04-23T12:56:32.902Z,570
2017-04-23T12:57:34.195Z,605
2017-04-23T12:58:35.454Z,620
2017-04-23T12:59:36.701Z,590
2017-04-23T13:00:37.982Z,555
2017-04-23T13:01:39.275Z,515
2017-04-23T13:02:40.526Z,470
2017-04-23T13:03:41.808Z,455
2017-04-23T13:04:43.067Z,465
2017-04-23T13:05:44.395Z,470
2017-04-23T13:06:45.654Z,450
2017-04-23T13:07:46.931Z,410
2017-04-23T13:08:48.194Z,360
2017-04-23T13:09:49.445Z,360
2017-04-23T13:10:50.808Z,435
2017-04-23T13:11:52.092Z,530
2017-04-23T13:12:53.349Z,560
2017-04-23T13:13:54.591Z,580
2017-04-23T13:14:55.841Z,590
2017-04-23T13:15:57.103Z,590
2017-04-23T13:16:58.346Z,590
2017-04-23T13:17:59.607Z,570
2017-04-23T13:19:00.863Z,495
2017-04-23T13:20:02.118Z,375
2017-04-23T13:21:03.362Z,285
2017-04-23T13:22:04.714Z,250
2017-04-23T13:23:05.959Z,260
2017-04-23T13:24:07.330Z,275
2017-04-23T13:25:08.582Z,285
2017-04-23T13:26:09.840Z,300
2017-04-23T13:27:11.109Z,295
2017-04-23T13:28:12.436Z,305
2017-04-23T13:29:13.670Z,315
2017-04-23T13:30:14.946Z,290
2017-04-23T13:31:16.212Z,260
2017-04-23T13:32:17.468Z,225
2017-04-23T13:33:18.813Z,195
2017-04-23T13:34:20.455Z,165
2017-04-23T13:35:21.942Z,150
2017-04-23T13:36:23.258Z,145
2017-04-23T13:37:24.504Z,150
2017-04-23T13:38:25.746Z,155
2017-04-23T13:39:27.032Z,165
2017-04-23T13:40:28.315Z,155
2017-04-23T13:41:29.555Z,145
2017-04-23T13:42:30.806Z,145
2017-04-23T13:43:32.075Z,155
2017-04-23T13:44:33.392Z,195
2017-04-23T13:45:34.727Z,280
2017-04-23T13:46:35.964Z,370
2017-04-23T13:47:37.244Z,415
2017-04-23T13:48:38.499Z,450
2017-04-23T13:49:39.739Z,455
2017-04-23T13:50:41.088Z,465
2017-04-23T13:51:42.314Z,440
2017-04-23T13:52:43.561Z,425
2017-04-23T13:53:44.823Z,405
2017-04-23T13:54:46.078Z,390
2017-04-23T13:55:47.320Z,405
2017-04-23T13:56:48.607Z,460
2017-04-23T13:57:49.865Z,500
2017-04-23T13:58:51.128Z,510
2017-04-23T13:59:52.355Z,510
2017-04-23T14:00:53.579Z,505
2017-04-23T14:01:54.834Z,485
2017-04-23T14:02:56.145Z,460
2017-04-23T14:03:57.538Z,475
2017-04-23T14:04:58.760Z,485
2017-04-23T14:05:59.996Z,400
2017-04-23T14:07:01.320Z,390
2017-04-23T14:08:02.564Z,430
2017-04-23T14:09:04.637Z,450
2017-04-23T14:10:05.969Z,435
2017-04-23T14:11:08.755Z,450
2017-04-23T14:12:11.098Z,435
2017-04-23T14:13:12.968Z,385
2017-04-23T14:14:14.822Z,385
2017-04-23T14:15:16.957Z,380
2017-04-23T14:16:18.529Z,365
2017-04-23T14:17:20.358Z,345
2017-04-23T14:18:21.779Z,360
2017-04-23T14:19:23.328Z,385